Terminal Aerodrome Forecast
Issued by NWS

Home | Current Version | Previous Version | Text Only | Print | Product List | Glossary On
Versions: 1 2 3 4 5 6 7 8 9 10 11 12 13
000
FTAK31 PAJN 201722
TAFAGY
TAF
PAGY 201722Z 2018/2118 02012G20KT P6SM OVC070
     FM202100 03015G25KT P6SM VCSH BKN050 OVC070
     FM210300 03020G30KT P6SM VCSH SCT030 OVC050
     FM210900 03013G23KT P6SM VCSH SCT050 OVC070
      AMD LTD TO CLD VIS AND WIND=

USA.gov is the U.S. government's official web portal to all federal, state and local government web resources and services.